sensor_id;sensor_type;location;lat;lon;timestamp;P1;durP1;ratioP1;P2;durP2;ratioP2
27580;SDS011;63557;52.302;7.964;2024-01-07T00:01:02;33.75;;;17.67;;
27580;SDS011;63557;52.302;7.964;2024-01-07T00:06:03;30.65;;;18.80;;
27580;SDS011;63557;52.302;7.964;2024-01-07T00:11:03;34.60;;;19.40;;
27580;SDS011;63557;52.302;7.964;2024-01-07T00:16:04;29.83;;;17.03;;
27580;SDS011;63557;52.302;7.964;2024-01-07T00:21:04;29.90;;;16.00;;
27580;SDS011;63557;52.302;7.964;2024-01-07T00:26:04;31.75;;;20.35;;
27580;SDS011;63557;52.302;7.964;2024-01-07T00:31:05;35.00;;;18.60;;
27580;SDS011;63557;52.302;7.964;2024-01-07T00:36:08;31.77;;;18.85;;
27580;SDS011;63557;52.302;7.964;2024-01-07T00:41:08;28.85;;;17.10;;
27580;SDS011;63557;52.302;7.964;2024-01-07T00:46:09;30.08;;;16.83;;
27580;SDS011;63557;52.302;7.964;2024-01-07T00:51:09;28.35;;;16.98;;
27580;SDS011;63557;52.302;7.964;2024-01-07T00:56:10;28.48;;;14.70;;
27580;SDS011;63557;52.302;7.964;2024-01-07T01:01:11;29.67;;;16.95;;
27580;SDS011;63557;52.302;7.964;2024-01-07T01:06:11;28.55;;;16.70;;
27580;SDS011;63557;52.302;7.964;2024-01-07T01:11:12;30.75;;;16.52;;
27580;SDS011;63557;52.302;7.964;2024-01-07T01:16:12;27.52;;;16.50;;
27580;SDS011;63557;52.302;7.964;2024-01-07T01:21:12;26.77;;;15.38;;
27580;SDS011;63557;52.302;7.964;2024-01-07T01:26:13;33.70;;;16.27;;
27580;SDS011;63557;52.302;7.964;2024-01-07T01:31:13;25.88;;;13.90;;
27580;SDS011;63557;52.302;7.964;2024-01-07T01:36:14;30.25;;;17.35;;
27580;SDS011;63557;52.302;7.964;2024-01-07T01:41:15;34.83;;;18.58;;
27580;SDS011;63557;52.302;7.964;2024-01-07T01:46:16;29.58;;;15.98;;
27580;SDS011;63557;52.302;7.964;2024-01-07T01:51:17;30.90;;;17.90;;
27580;SDS011;63557;52.302;7.964;2024-01-07T01:56:17;33.45;;;18.33;;
27580;SDS011;63557;52.302;7.964;2024-01-07T02:01:21;31.42;;;18.05;;
27580;SDS011;63557;52.302;7.964;2024-01-07T02:06:21;30.42;;;16.80;;
27580;SDS011;63557;52.302;7.964;2024-01-07T02:11:22;26.65;;;16.83;;
27580;SDS011;63557;52.302;7.964;2024-01-07T02:16:22;30.27;;;18.20;;
27580;SDS011;63557;52.302;7.964;2024-01-07T02:21:23;29.40;;;17.08;;
27580;SDS011;63557;52.302;7.964;2024-01-07T02:26:23;30.90;;;16.80;;
27580;SDS011;63557;52.302;7.964;2024-01-07T02:31:24;30.92;;;18.02;;
27580;SDS011;63557;52.302;7.964;2024-01-07T02:36:25;31.35;;;16.92;;
27580;SDS011;63557;52.302;7.964;2024-01-07T02:41:25;33.47;;;17.55;;
27580;SDS011;63557;52.302;7.964;2024-01-07T02:46:26;24.60;;;14.00;;
27580;SDS011;63557;52.302;7.964;2024-01-07T02:51:27;30.73;;;17.40;;
27580;SDS011;63557;52.302;7.964;2024-01-07T02:56:27;28.77;;;17.08;;
27580;SDS011;63557;52.302;7.964;2024-01-07T03:01:28;31.92;;;16.08;;
27580;SDS011;63557;52.302;7.964;2024-01-07T03:06:28;29.40;;;17.85;;
27580;SDS011;63557;52.302;7.964;2024-01-07T03:11:29;29.60;;;17.30;;
27580;SDS011;63557;52.302;7.964;2024-01-07T03:16:29;26.48;;;15.60;;
27580;SDS011;63557;52.302;7.964;2024-01-07T03:21:30;38.58;;;17.92;;
27580;SDS011;63557;52.302;7.964;2024-01-07T03:26:30;28.60;;;12.98;;
27580;SDS011;63557;52.302;7.964;2024-01-07T03:31:34;30.73;;;17.00;;
27580;SDS011;63557;52.302;7.964;2024-01-07T03:36:34;28.90;;;16.88;;
27580;SDS011;63557;52.302;7.964;2024-01-07T03:41:34;31.95;;;17.45;;
27580;SDS011;63557;52.302;7.964;2024-01-07T03:46:35;26.00;;;15.50;;
27580;SDS011;63557;52.302;7.964;2024-01-07T03:51:35;23.95;;;14.68;;
27580;SDS011;63557;52.302;7.964;2024-01-07T03:56:35;24.17;;;14.32;;
27580;SDS011;63557;52.302;7.964;2024-01-07T04:01:36;23.48;;;13.75;;
27580;SDS011;63557;52.302;7.964;2024-01-07T04:06:36;28.80;;;15.80;;
27580;SDS011;63557;52.302;7.964;2024-01-07T04:11:40;18.23;;;10.13;;
27580;SDS011;63557;52.302;7.964;2024-01-07T04:16:41;28.40;;;15.63;;
27580;SDS011;63557;52.302;7.964;2024-01-07T04:21:45;27.80;;;15.57;;
27580;SDS011;63557;52.302;7.964;2024-01-07T04:26:45;23.57;;;13.50;;
27580;SDS011;63557;52.302;7.964;2024-01-07T04:31:46;24.80;;;14.52;;
27580;SDS011;63557;52.302;7.964;2024-01-07T04:36:46;27.10;;;15.63;;
27580;SDS011;63557;52.302;7.964;2024-01-07T04:41:48;25.60;;;14.07;;
27580;SDS011;63557;52.302;7.964;2024-01-07T04:46:48;22.02;;;13.82;;
27580;SDS011;63557;52.302;7.964;2024-01-07T04:51:49;21.73;;;13.68;;
27580;SDS011;63557;52.302;7.964;2024-01-07T04:56:49;24.27;;;15.25;;
27580;SDS011;63557;52.302;7.964;2024-01-07T05:01:50;24.63;;;14.27;;
27580;SDS011;63557;52.302;7.964;2024-01-07T05:06:50;22.27;;;12.75;;
27580;SDS011;63557;52.302;7.964;2024-01-07T05:11:51;22.67;;;11.50;;
27580;SDS011;63557;52.302;7.964;2024-01-07T05:16:52;25.00;;;13.85;;
27580;SDS011;63557;52.302;7.964;2024-01-07T05:21:53;21.23;;;12.90;;
27580;SDS011;63557;52.302;7.964;2024-01-07T05:26:53;18.23;;;10.70;;
27580;SDS011;63557;52.302;7.964;2024-01-07T05:31:54;14.68;;;8.63;;
27580;SDS011;63557;52.302;7.964;2024-01-07T05:36:54;19.02;;;10.82;;
27580;SDS011;63557;52.302;7.964;2024-01-07T05:41:55;17.10;;;10.02;;
27580;SDS011;63557;52.302;7.964;2024-01-07T05:46:55;18.58;;;11.15;;
27580;SDS011;63557;52.302;7.964;2024-01-07T05:51:56;20.80;;;11.52;;
27580;SDS011;63557;52.302;7.964;2024-01-07T05:56:56;19.52;;;10.88;;
27580;SDS011;63557;52.302;7.964;2024-01-07T06:01:59;18.75;;;10.68;;
27580;SDS011;63557;52.302;7.964;2024-01-07T06:07:00;16.05;;;10.05;;
27580;SDS011;63557;52.302;7.964;2024-01-07T06:12:00;15.02;;;9.27;;
27580;SDS011;63557;52.302;7.964;2024-01-07T06:17:01;15.73;;;10.63;;
27580;SDS011;63557;52.302;7.964;2024-01-07T06:22:01;16.73;;;11.05;;
27580;SDS011;63557;52.302;7.964;2024-01-07T06:27:02;21.88;;;12.25;;
27580;SDS011;63557;52.302;7.964;2024-01-07T06:32:04;16.45;;;9.02;;
27580;SDS011;63557;52.302;7.964;2024-01-07T06:37:04;17.45;;;10.63;;
27580;SDS011;63557;52.302;7.964;2024-01-07T06:42:05;23.58;;;11.60;;
27580;SDS011;63557;52.302;7.964;2024-01-07T06:47:06;20.33;;;12.15;;
27580;SDS011;63557;52.302;7.964;2024-01-07T06:52:06;18.08;;;10.82;;
27580;SDS011;63557;52.302;7.964;2024-01-07T06:57:07;20.92;;;11.52;;
27580;SDS011;63557;52.302;7.964;2024-01-07T07:02:07;15.00;;;8.82;;
27580;SDS011;63557;52.302;7.964;2024-01-07T07:07:07;16.45;;;8.73;;
27580;SDS011;63557;52.302;7.964;2024-01-07T07:12:08;17.42;;;8.15;;
27580;SDS011;63557;52.302;7.964;2024-01-07T07:17:08;12.80;;;7.20;;
27580;SDS011;63557;52.302;7.964;2024-01-07T07:22:09;15.15;;;7.57;;
27580;SDS011;63557;52.302;7.964;2024-01-07T07:27:09;16.02;;;7.50;;
27580;SDS011;63557;52.302;7.964;2024-01-07T07:32:09;14.23;;;7.88;;
27580;SDS011;63557;52.302;7.964;2024-01-07T07:37:10;18.27;;;8.32;;
27580;SDS011;63557;52.302;7.964;2024-01-07T07:42:10;10.10;;;6.40;;
27580;SDS011;63557;52.302;7.964;2024-01-07T07:47:12;12.70;;;6.68;;
27580;SDS011;63557;52.302;7.964;2024-01-07T07:52:12;11.80;;;7.45;;
27580;SDS011;63557;52.302;7.964;2024-01-07T07:57:14;12.15;;;7.15;;
27580;SDS011;63557;52.302;7.964;2024-01-07T08:02:15;14.00;;;6.93;;
27580;SDS011;63557;52.302;7.964;2024-01-07T08:07:15;15.00;;;5.63;;
27580;SDS011;63557;52.302;7.964;2024-01-07T08:12:15;7.38;;;5.57;;
27580;SDS011;63557;52.302;7.964;2024-01-07T08:17:16;8.77;;;6.00;;
27580;SDS011;63557;52.302;7.964;2024-01-07T08:22:17;4.82;;;3.88;;
27580;SDS011;63557;52.302;7.964;2024-01-07T08:27:17;12.65;;;6.68;;
27580;SDS011;63557;52.302;7.964;2024-01-07T08:32:17;6.40;;;4.68;;
27580;SDS011;63557;52.302;7.964;2024-01-07T08:37:19;10.57;;;5.68;;
27580;SDS011;63557;52.302;7.964;2024-01-07T08:42:19;9.60;;;4.75;;
27580;SDS011;63557;52.302;7.964;2024-01-07T08:47:20;9.57;;;5.43;;
27580;SDS011;63557;52.302;7.964;2024-01-07T08:52:20;9.00;;;4.63;;
27580;SDS011;63557;52.302;7.964;2024-01-07T08:57:20;7.35;;;4.95;;
27580;SDS011;63557;52.302;7.964;2024-01-07T09:02:21;7.82;;;4.88;;
27580;SDS011;63557;52.302;7.964;2024-01-07T09:07:21;7.90;;;5.22;;
27580;SDS011;63557;52.302;7.964;2024-01-07T09:12:22;9.88;;;5.45;;
27580;SDS011;63557;52.302;7.964;2024-01-07T09:17:22;8.60;;;5.07;;
27580;SDS011;63557;52.302;7.964;2024-01-07T09:22:23;6.75;;;4.35;;
27580;SDS011;63557;52.302;7.964;2024-01-07T09:27:23;9.10;;;4.72;;
27580;SDS011;63557;52.302;7.964;2024-01-07T09:32:23;7.05;;;4.88;;
27580;SDS011;63557;52.302;7.964;2024-01-07T09:37:24;8.70;;;5.22;;
27580;SDS011;63557;52.302;7.964;2024-01-07T09:42:25;9.40;;;5.05;;
27580;SDS011;63557;52.302;7.964;2024-01-07T09:47:26;10.75;;;5.60;;
27580;SDS011;63557;52.302;7.964;2024-01-07T09:52:26;9.23;;;5.30;;
27580;SDS011;63557;52.302;7.964;2024-01-07T09:57:27;9.20;;;5.25;;
27580;SDS011;63557;52.302;7.964;2024-01-07T10:02:28;8.10;;;5.18;;
27580;SDS011;63557;52.302;7.964;2024-01-07T10:07:28;7.18;;;4.88;;
27580;SDS011;63557;52.302;7.964;2024-01-07T10:12:29;7.05;;;4.72;;
27580;SDS011;63557;52.302;7.964;2024-01-07T10:17:29;8.68;;;5.35;;
27580;SDS011;63557;52.302;7.964;2024-01-07T10:22:29;8.90;;;5.03;;
27580;SDS011;63557;52.302;7.964;2024-01-07T10:27:33;6.57;;;4.07;;
27580;SDS011;63557;52.302;7.964;2024-01-07T10:32:35;7.90;;;4.95;;
27580;SDS011;63557;52.302;7.964;2024-01-07T10:37:36;10.25;;;5.55;;
27580;SDS011;63557;52.302;7.964;2024-01-07T10:42:36;13.40;;;5.95;;
27580;SDS011;63557;52.302;7.964;2024-01-07T10:47:37;12.38;;;5.38;;
27580;SDS011;63557;52.302;7.964;2024-01-07T10:52:40;10.02;;;5.63;;
27580;SDS011;63557;52.302;7.964;2024-01-07T10:57:44;7.72;;;5.10;;
27580;SDS011;63557;52.302;7.964;2024-01-07T11:08:28;9.57;;;5.13;;
27580;SDS011;63557;52.302;7.964;2024-01-07T11:13:32;9.43;;;5.05;;
27580;SDS011;63557;52.302;7.964;2024-01-07T11:18:37;5.00;;;4.50;;
27580;SDS011;63557;52.302;7.964;2024-01-07T11:23:43;5.72;;;4.63;;
27580;SDS011;63557;52.302;7.964;2024-01-07T11:33:48;5.73;;;4.07;;
27580;SDS011;63557;52.302;7.964;2024-01-07T11:38:49;7.78;;;4.47;;
27580;SDS011;63557;52.302;7.964;2024-01-07T11:48:54;7.63;;;4.60;;
27580;SDS011;63557;52.302;7.964;2024-01-07T11:53:59;7.15;;;4.10;;
27580;SDS011;63557;52.302;7.964;2024-01-07T11:58:59;6.15;;;3.80;;
27580;SDS011;63557;52.302;7.964;2024-01-07T12:04:00;8.77;;;4.32;;
27580;SDS011;63557;52.302;7.964;2024-01-07T12:09:01;6.30;;;4.47;;
27580;SDS011;63557;52.302;7.964;2024-01-07T12:14:01;7.38;;;4.13;;
27580;SDS011;63557;52.302;7.964;2024-01-07T12:19:02;8.75;;;4.25;;
27580;SDS011;63557;52.302;7.964;2024-01-07T12:24:02;12.25;;;4.63;;
27580;SDS011;63557;52.302;7.964;2024-01-07T12:29:03;7.53;;;4.82;;
27580;SDS011;63557;52.302;7.964;2024-01-07T12:34:03;8.55;;;4.45;;
27580;SDS011;63557;52.302;7.964;2024-01-07T12:39:04;8.93;;;4.53;;
27580;SDS011;63557;52.302;7.964;2024-01-07T12:44:05;9.00;;;4.00;;
27580;SDS011;63557;52.302;7.964;2024-01-07T12:49:05;6.68;;;4.03;;
27580;SDS011;63557;52.302;7.964;2024-01-07T12:54:05;6.72;;;4.13;;
27580;SDS011;63557;52.302;7.964;2024-01-07T12:59:06;8.20;;;4.07;;
27580;SDS011;63557;52.302;7.964;2024-01-07T13:04:06;8.93;;;4.38;;
27580;SDS011;63557;52.302;7.964;2024-01-07T13:09:09;6.25;;;4.25;;
27580;SDS011;63557;52.302;7.964;2024-01-07T13:14:09;10.30;;;4.20;;
27580;SDS011;63557;52.302;7.964;2024-01-07T13:19:10;8.35;;;4.32;;
27580;SDS011;63557;52.302;7.964;2024-01-07T13:24:10;5.05;;;3.97;;
27580;SDS011;63557;52.302;7.964;2024-01-07T13:29:11;5.30;;;3.78;;
27580;SDS011;63557;52.302;7.964;2024-01-07T13:34:11;6.63;;;4.50;;
27580;SDS011;63557;52.302;7.964;2024-01-07T13:39:14;6.75;;;3.70;;
27580;SDS011;63557;52.302;7.964;2024-01-07T13:44:16;6.00;;;4.43;;
27580;SDS011;63557;52.302;7.964;2024-01-07T13:49:19;10.40;;;4.75;;
27580;SDS011;63557;52.302;7.964;2024-01-07T13:54:19;9.03;;;5.50;;
27580;SDS011;63557;52.302;7.964;2024-01-07T13:59:20;5.53;;;4.30;;
27580;SDS011;63557;52.302;7.964;2024-01-07T14:04:21;8.52;;;5.03;;
27580;SDS011;63557;52.302;7.964;2024-01-07T14:09:22;8.63;;;6.00;;
27580;SDS011;63557;52.302;7.964;2024-01-07T14:14:23;6.97;;;4.72;;
27580;SDS011;63557;52.302;7.964;2024-01-07T14:19:23;8.52;;;5.93;;
27580;SDS011;63557;52.302;7.964;2024-01-07T14:24:24;10.40;;;5.07;;
27580;SDS011;63557;52.302;7.964;2024-01-07T14:29:24;10.50;;;5.60;;
27580;SDS011;63557;52.302;7.964;2024-01-07T14:34:25;9.63;;;5.80;;
27580;SDS011;63557;52.302;7.964;2024-01-07T14:39:25;9.18;;;5.47;;
27580;SDS011;63557;52.302;7.964;2024-01-07T14:44:26;10.20;;;5.60;;
27580;SDS011;63557;52.302;7.964;2024-01-07T14:49:26;9.32;;;5.30;;
27580;SDS011;63557;52.302;7.964;2024-01-07T14:54:27;8.13;;;4.88;;
27580;SDS011;63557;52.302;7.964;2024-01-07T14:59:27;10.00;;;5.53;;
27580;SDS011;63557;52.302;7.964;2024-01-07T15:04:28;8.07;;;4.78;;
27580;SDS011;63557;52.302;7.964;2024-01-07T15:09:28;9.90;;;5.30;;
27580;SDS011;63557;52.302;7.964;2024-01-07T15:14:28;9.90;;;6.18;;
27580;SDS011;63557;52.302;7.964;2024-01-07T15:19:29;12.80;;;5.65;;
27580;SDS011;63557;52.302;7.964;2024-01-07T15:24:30;11.15;;;6.25;;
27580;SDS011;63557;52.302;7.964;2024-01-07T15:29:30;10.65;;;6.22;;
27580;SDS011;63557;52.302;7.964;2024-01-07T15:34:30;12.77;;;6.90;;
27580;SDS011;63557;52.302;7.964;2024-01-07T15:39:31;30.25;;;15.38;;
27580;SDS011;63557;52.302;7.964;2024-01-07T15:44:31;11.75;;;6.70;;
27580;SDS011;63557;52.302;7.964;2024-01-07T15:49:32;17.33;;;9.55;;
27580;SDS011;63557;52.302;7.964;2024-01-07T15:54:32;11.38;;;6.70;;
27580;SDS011;63557;52.302;7.964;2024-01-07T15:59:33;15.02;;;8.90;;
27580;SDS011;63557;52.302;7.964;2024-01-07T16:04:33;12.38;;;7.75;;
27580;SDS011;63557;52.302;7.964;2024-01-07T16:09:33;12.95;;;8.75;;
27580;SDS011;63557;52.302;7.964;2024-01-07T16:14:36;15.85;;;7.57;;
27580;SDS011;63557;52.302;7.964;2024-01-07T16:19:36;15.40;;;8.13;;
27580;SDS011;63557;52.302;7.964;2024-01-07T16:24:37;16.15;;;8.98;;
27580;SDS011;63557;52.302;7.964;2024-01-07T16:29:39;16.27;;;9.02;;
27580;SDS011;63557;52.302;7.964;2024-01-07T16:34:39;11.85;;;8.10;;
27580;SDS011;63557;52.302;7.964;2024-01-07T16:39:40;14.13;;;9.27;;
27580;SDS011;63557;52.302;7.964;2024-01-07T16:44:40;16.90;;;8.18;;
27580;SDS011;63557;52.302;7.964;2024-01-07T16:49:40;16.25;;;8.63;;
27580;SDS011;63557;52.302;7.964;2024-01-07T16:54:41;16.92;;;10.00;;
27580;SDS011;63557;52.302;7.964;2024-01-07T16:59:41;10.40;;;7.93;;
27580;SDS011;63557;52.302;7.964;2024-01-07T17:04:42;12.20;;;7.90;;
27580;SDS011;63557;52.302;7.964;2024-01-07T17:09:43;15.93;;;8.40;;
27580;SDS011;63557;52.302;7.964;2024-01-07T17:14:43;16.25;;;8.18;;
27580;SDS011;63557;52.302;7.964;2024-01-07T17:19:45;12.57;;;8.38;;
27580;SDS011;63557;52.302;7.964;2024-01-07T17:24:45;13.73;;;8.07;;
27580;SDS011;63557;52.302;7.964;2024-01-07T17:29:46;15.75;;;8.05;;
27580;SDS011;63557;52.302;7.964;2024-01-07T17:34:50;12.63;;;8.00;;
27580;SDS011;63557;52.302;7.964;2024-01-07T17:39:50;13.18;;;7.93;;
27580;SDS011;63557;52.302;7.964;2024-01-07T17:44:51;18.38;;;8.13;;
27580;SDS011;63557;52.302;7.964;2024-01-07T17:49:51;14.07;;;7.95;;
27580;SDS011;63557;52.302;7.964;2024-01-07T17:54:52;16.35;;;8.55;;
27580;SDS011;63557;52.302;7.964;2024-01-07T17:59:54;12.65;;;8.05;;
27580;SDS011;63557;52.302;7.964;2024-01-07T18:04:55;13.57;;;7.93;;
27580;SDS011;63557;52.302;7.964;2024-01-07T18:09:55;17.45;;;9.25;;
27580;SDS011;63557;52.302;7.964;2024-01-07T18:14:56;12.50;;;8.45;;
27580;SDS011;63557;52.302;7.964;2024-01-07T18:19:56;17.13;;;9.23;;
27580;SDS011;63557;52.302;7.964;2024-01-07T18:24:58;19.38;;;9.88;;
27580;SDS011;63557;52.302;7.964;2024-01-07T18:29:58;17.23;;;10.00;;
27580;SDS011;63557;52.302;7.964;2024-01-07T18:34:59;18.95;;;10.68;;
27580;SDS011;63557;52.302;7.964;2024-01-07T18:40:00;14.57;;;7.65;;
27580;SDS011;63557;52.302;7.964;2024-01-07T18:45:02;19.67;;;9.13;;
27580;SDS011;63557;52.302;7.964;2024-01-07T18:50:03;17.15;;;10.02;;
27580;SDS011;63557;52.302;7.964;2024-01-07T18:55:05;16.27;;;9.35;;
27580;SDS011;63557;52.302;7.964;2024-01-07T19:00:07;15.63;;;8.90;;
27580;SDS011;63557;52.302;7.964;2024-01-07T19:05:07;14.70;;;8.27;;
27580;SDS011;63557;52.302;7.964;2024-01-07T19:10:08;12.88;;;7.00;;
27580;SDS011;63557;52.302;7.964;2024-01-07T19:15:10;16.35;;;8.73;;
27580;SDS011;63557;52.302;7.964;2024-01-07T19:20:10;14.93;;;8.88;;
27580;SDS011;63557;52.302;7.964;2024-01-07T19:25:11;18.50;;;9.30;;
27580;SDS011;63557;52.302;7.964;2024-01-07T19:30:12;15.35;;;9.82;;
27580;SDS011;63557;52.302;7.964;2024-01-07T19:35:12;19.35;;;10.25;;
27580;SDS011;63557;52.302;7.964;2024-01-07T19:40:13;18.73;;;9.45;;
27580;SDS011;63557;52.302;7.964;2024-01-07T19:45:14;15.15;;;9.30;;
27580;SDS011;63557;52.302;7.964;2024-01-07T19:50:14;16.27;;;9.07;;
27580;SDS011;63557;52.302;7.964;2024-01-07T19:55:14;16.15;;;9.05;;
27580;SDS011;63557;52.302;7.964;2024-01-07T20:00:15;13.75;;;8.88;;
27580;SDS011;63557;52.302;7.964;2024-01-07T20:05:16;14.05;;;8.35;;
27580;SDS011;63557;52.302;7.964;2024-01-07T20:10:16;15.93;;;8.95;;
27580;SDS011;63557;52.302;7.964;2024-01-07T20:15:17;15.55;;;8.65;;
27580;SDS011;63557;52.302;7.964;2024-01-07T20:20:18;12.27;;;8.10;;
27580;SDS011;63557;52.302;7.964;2024-01-07T20:25:19;11.15;;;7.13;;
27580;SDS011;63557;52.302;7.964;2024-01-07T20:30:19;14.98;;;8.27;;
27580;SDS011;63557;52.302;7.964;2024-01-07T20:35:21;11.02;;;7.07;;
27580;SDS011;63557;52.302;7.964;2024-01-07T20:40:21;11.07;;;7.75;;
27580;SDS011;63557;52.302;7.964;2024-01-07T20:45:22;15.07;;;8.23;;
27580;SDS011;63557;52.302;7.964;2024-01-07T20:50:25;16.52;;;8.75;;
27580;SDS011;63557;52.302;7.964;2024-01-07T20:55:26;16.77;;;8.52;;
27580;SDS011;63557;52.302;7.964;2024-01-07T21:00:27;16.73;;;9.40;;
27580;SDS011;63557;52.302;7.964;2024-01-07T21:05:28;12.48;;;8.02;;
27580;SDS011;63557;52.302;7.964;2024-01-07T21:10:28;15.85;;;8.82;;
27580;SDS011;63557;52.302;7.964;2024-01-07T21:15:29;14.63;;;8.57;;
27580;SDS011;63557;52.302;7.964;2024-01-07T21:20:30;14.80;;;8.85;;
27580;SDS011;63557;52.302;7.964;2024-01-07T21:25:30;12.45;;;8.10;;
27580;SDS011;63557;52.302;7.964;2024-01-07T21:30:32;10.20;;;7.45;;
27580;SDS011;63557;52.302;7.964;2024-01-07T21:35:33;15.35;;;7.78;;
27580;SDS011;63557;52.302;7.964;2024-01-07T21:40:33;11.65;;;7.00;;
27580;SDS011;63557;52.302;7.964;2024-01-07T21:45:34;11.20;;;7.40;;
27580;SDS011;63557;52.302;7.964;2024-01-07T21:50:34;13.85;;;7.75;;
27580;SDS011;63557;52.302;7.964;2024-01-07T21:55:34;11.82;;;7.50;;
27580;SDS011;63557;52.302;7.964;2024-01-07T22:00:37;12.90;;;7.15;;
27580;SDS011;63557;52.302;7.964;2024-01-07T22:05:37;11.10;;;7.07;;
27580;SDS011;63557;52.302;7.964;2024-01-07T22:10:38;10.70;;;6.80;;
27580;SDS011;63557;52.302;7.964;2024-01-07T22:15:38;10.07;;;6.30;;
27580;SDS011;63557;52.302;7.964;2024-01-07T22:20:39;11.52;;;7.07;;
27580;SDS011;63557;52.302;7.964;2024-01-07T22:25:39;11.25;;;6.93;;
27580;SDS011;63557;52.302;7.964;2024-01-07T22:30:40;13.82;;;7.80;;
27580;SDS011;63557;52.302;7.964;2024-01-07T22:35:41;16.15;;;8.10;;
27580;SDS011;63557;52.302;7.964;2024-01-07T22:40:41;14.10;;;8.02;;
27580;SDS011;63557;52.302;7.964;2024-01-07T22:45:43;11.23;;;6.97;;
27580;SDS011;63557;52.302;7.964;2024-01-07T22:50:43;10.70;;;6.45;;
27580;SDS011;63557;52.302;7.964;2024-01-07T22:55:44;15.57;;;7.93;;
27580;SDS011;63557;52.302;7.964;2024-01-07T23:00:45;14.65;;;7.03;;
27580;SDS011;63557;52.302;7.964;2024-01-07T23:05:48;14.30;;;8.05;;
27580;SDS011;63557;52.302;7.964;2024-01-07T23:10:49;11.73;;;6.78;;
27580;SDS011;63557;52.302;7.964;2024-01-07T23:15:49;12.82;;;6.45;;
27580;SDS011;63557;52.302;7.964;2024-01-07T23:20:49;15.65;;;7.53;;
27580;SDS011;63557;52.302;7.964;2024-01-07T23:25:50;11.68;;;7.38;;
27580;SDS011;63557;52.302;7.964;2024-01-07T23:30:50;14.40;;;7.00;;
27580;SDS011;63557;52.302;7.964;2024-01-07T23:35:51;12.10;;;7.00;;
27580;SDS011;63557;52.302;7.964;2024-01-07T23:40:51;17.13;;;8.15;;
27580;SDS011;63557;52.302;7.964;2024-01-07T23:45:51;13.38;;;8.18;;
27580;SDS011;63557;52.302;7.964;2024-01-07T23:50:52;14.82;;;7.70;;
27580;SDS011;63557;52.302;7.964;2024-01-07T23:55:52;12.07;;;7.55;;
